Weather at Albuquerque International Sunport

Public forecast

Using degrees Fahrenheit for public forecast. Weather courtesy of forecast.io.

Current aviation weather report (METAR) for Albuquerque International Sunport

Retrieved 2020/09/30 07:52 UTC (57 minutes ago):

KABQ 300752Z 12006KT 10SM CLR 12/M07 A3029 RMK AO2 SLP202 T01221067

Aviation forecast (TAF) for Albuquerque International Sunport

Retrieved 2020/09/30 06:39 UTC (2 hours ago):

TAF KABQ 300536Z 3006/0106 12006KT P6SM SKC FM302100 34006KT P6SM SKC FM010200 08006KT P6SM SKC